createdAt,value
2023-04-05T00:00:01.112Z,5.70
2023-04-05T00:04:58.516Z,4.90
2023-04-05T00:07:26.436Z,6.80
2023-04-05T00:09:53.713Z,6.75
2023-04-05T00:12:20.695Z,6.80
2023-04-05T00:14:48.494Z,6.82
2023-04-05T00:17:15.444Z,7.32
2023-04-05T00:19:43.185Z,5.10
2023-04-05T00:22:10.633Z,6.03
2023-04-05T00:24:39.039Z,10.05
2023-04-05T00:27:06.135Z,9.75
2023-04-05T00:29:33.058Z,11.25
2023-04-05T00:32:00.330Z,10.27
2023-04-05T00:34:27.651Z,12.13
2023-04-05T00:36:54.434Z,11.77
2023-04-05T00:39:21.711Z,10.88
2023-04-05T00:41:48.893Z,9.00
2023-04-05T00:44:15.777Z,11.10
2023-04-05T00:46:42.604Z,9.00
2023-04-05T00:49:09.582Z,9.88
2023-04-05T00:51:38.072Z,9.00
2023-04-05T00:54:05.402Z,7.57
2023-04-05T00:56:32.880Z,9.88
2023-04-05T00:58:59.826Z,7.97
2023-04-05T01:01:27.910Z,7.80
2023-04-05T01:04:03.112Z,9.70
2023-04-05T01:06:44.679Z,7.38
2023-04-05T01:09:33.022Z,11.02
2023-04-05T01:12:04.748Z,10.63
2023-04-05T01:14:31.629Z,10.52
2023-04-05T01:16:58.521Z,7.80
2023-04-05T01:19:30.175Z,8.82
2023-04-05T01:22:14.365Z,8.90
2023-04-05T01:24:46.788Z,6.63
2023-04-05T01:27:48.696Z,8.48
2023-04-05T01:30:34.865Z,7.57
2023-04-05T01:33:35.192Z,8.18
2023-04-05T01:36:11.840Z,7.55
2023-04-05T01:38:46.329Z,8.65
2023-04-05T01:41:13.657Z,7.68
2023-04-05T01:43:40.455Z,7.88
2023-04-05T01:46:07.537Z,8.77
2023-04-05T01:48:34.280Z,8.65
2023-04-05T01:51:01.208Z,11.30
2023-04-05T01:53:28.006Z,12.07
2023-04-05T01:55:54.851Z,7.95
2023-04-05T01:58:21.716Z,6.05
2023-04-05T02:00:48.976Z,8.23
2023-04-05T02:03:15.929Z,8.32
2023-04-05T02:05:42.823Z,10.75
2023-04-05T02:08:09.995Z,7.00
2023-04-05T02:10:37.157Z,6.93
2023-04-05T02:13:04.064Z,6.32
2023-04-05T02:15:30.864Z,5.50
2023-04-05T02:17:57.692Z,8.50
2023-04-05T02:20:26.026Z,6.05
2023-04-05T02:22:53.745Z,6.68
2023-04-05T02:25:21.078Z,5.30
2023-04-05T02:27:48.765Z,7.05
2023-04-05T02:30:15.818Z,7.32
2023-04-05T02:32:42.951Z,8.98
2023-04-05T02:35:10.742Z,7.82
2023-04-05T02:37:38.260Z,6.93
2023-04-05T02:40:11.857Z,8.10
2023-04-05T02:42:39.028Z,5.40
2023-04-05T02:45:08.442Z,5.10
2023-04-05T02:47:35.325Z,5.50
2023-04-05T02:50:02.732Z,5.53
2023-04-05T02:52:29.640Z,6.40
2023-04-05T02:54:56.411Z,4.20
2023-04-05T02:57:23.656Z,6.63
2023-04-05T02:59:52.085Z,5.28
2023-04-05T03:02:19.011Z,5.10
2023-04-05T03:04:46.619Z,4.88
2023-04-05T03:07:18.548Z,4.68
2023-04-05T03:09:46.507Z,3.88
2023-04-05T03:12:13.832Z,4.95
2023-04-05T03:14:41.434Z,5.30
2023-04-05T03:17:08.406Z,4.97
2023-04-05T03:19:35.656Z,3.53
2023-04-05T03:22:02.467Z,7.22
2023-04-05T03:24:29.304Z,4.57
2023-04-05T03:26:56.163Z,5.15
2023-04-05T03:29:23.380Z,8.25
2023-04-05T03:31:51.168Z,5.57
2023-04-05T03:34:18.487Z,5.97
2023-04-05T03:36:45.810Z,10.20
2023-04-05T03:39:13.893Z,6.78
2023-04-05T03:41:41.675Z,7.88
2023-04-05T03:44:09.369Z,9.70
2023-04-05T03:46:38.177Z,9.85
2023-04-05T03:49:06.239Z,19.92
2023-04-05T03:51:33.482Z,7.15
2023-04-05T03:54:00.463Z,7.18
2023-04-05T03:56:27.837Z,18.20
2023-04-05T03:58:54.772Z,8.88
2023-04-05T04:01:22.088Z,21.48
2023-04-05T04:03:48.855Z,7.78
2023-04-05T04:06:17.885Z,12.45
2023-04-05T04:08:46.174Z,7.53
2023-04-05T04:11:13.025Z,9.40
2023-04-05T04:13:39.843Z,5.13
2023-04-05T04:16:07.178Z,6.18
2023-04-05T04:18:34.515Z,7.65
2023-04-05T04:21:07.242Z,6.35
2023-04-05T04:23:38.637Z,5.93
2023-04-05T04:26:06.178Z,7.18
2023-04-05T04:28:34.773Z,5.70
2023-04-05T04:31:05.225Z,5.40
2023-04-05T04:33:34.577Z,6.45
2023-04-05T04:36:07.160Z,6.07
2023-04-05T04:38:34.926Z,6.60
2023-04-05T04:41:07.304Z,7.07
2023-04-05T04:43:37.402Z,4.43
2023-04-05T04:46:10.986Z,5.57
2023-04-05T04:48:42.086Z,10.27
2023-04-05T04:51:09.336Z,6.95
2023-04-05T04:53:36.340Z,6.07
2023-04-05T04:56:07.519Z,5.30
2023-04-05T04:58:34.358Z,7.40
2023-04-05T05:01:01.372Z,6.32
2023-04-05T05:03:28.748Z,5.97
2023-04-05T05:05:57.082Z,5.47
2023-04-05T05:08:24.300Z,4.85
2023-04-05T05:10:54.402Z,4.90
2023-04-05T05:13:21.360Z,4.60
2023-04-05T05:15:48.616Z,5.72
2023-04-05T05:18:16.242Z,8.65
2023-04-05T05:20:43.458Z,12.38
2023-04-05T05:23:10.895Z,6.13
2023-04-05T05:25:38.653Z,5.45
2023-04-05T05:28:06.519Z,4.80
2023-04-05T05:30:33.843Z,6.93
2023-04-05T05:33:01.365Z,6.50
2023-04-05T05:35:28.438Z,7.82
2023-04-05T05:37:55.401Z,6.18
2023-04-05T05:40:22.165Z,8.10
2023-04-05T05:42:49.750Z,5.93
2023-04-05T05:45:16.549Z,5.30
2023-04-05T05:47:43.454Z,8.70
2023-04-05T05:50:10.746Z,9.43
2023-04-05T05:52:37.515Z,8.52
2023-04-05T05:55:04.568Z,7.90
2023-04-05T05:57:31.941Z,6.18
2023-04-05T05:59:58.786Z,6.53
2023-04-05T06:02:26.278Z,7.38
2023-04-05T06:04:55.115Z,8.48
2023-04-05T06:07:22.818Z,6.68
2023-04-05T06:09:49.872Z,6.35
2023-04-05T06:12:16.718Z,5.30
2023-04-05T06:14:43.579Z,4.90
2023-04-05T06:17:10.413Z,6.20
2023-04-05T06:19:37.807Z,11.07
2023-04-05T06:22:04.602Z,8.18
2023-04-05T06:24:32.140Z,9.50
2023-04-05T06:26:59.606Z,7.72
2023-04-05T06:29:27.016Z,7.57
2023-04-05T06:31:55.172Z,9.25
2023-04-05T06:34:22.031Z,10.25
2023-04-05T06:36:49.249Z,8.88
2023-04-05T06:39:16.152Z,10.32
2023-04-05T06:41:42.898Z,9.63
2023-04-05T06:44:09.732Z,9.70
2023-04-05T06:46:36.593Z,8.75
2023-04-05T06:49:04.245Z,6.40
2023-04-05T06:51:31.794Z,8.15
2023-04-05T06:53:58.827Z,9.48
2023-04-05T06:56:25.792Z,9.38
2023-04-05T06:58:53.253Z,7.53
2023-04-05T07:01:20.299Z,12.43
2023-04-05T07:03:47.128Z,8.98
2023-04-05T07:06:14.348Z,8.00
2023-04-05T07:08:41.201Z,7.55
2023-04-05T07:11:08.546Z,6.63
2023-04-05T07:13:36.055Z,6.45
2023-04-05T07:16:03.701Z,5.78
2023-04-05T07:18:30.871Z,7.10
2023-04-05T07:21:03.950Z,6.65
2023-04-05T07:23:31.154Z,6.63
2023-04-05T07:26:04.720Z,6.93
2023-04-05T07:28:33.047Z,7.50
2023-04-05T07:30:59.893Z,8.07
2023-04-05T07:33:27.290Z,8.18
2023-04-05T07:35:54.869Z,7.43
2023-04-05T07:38:22.136Z,8.35
2023-04-05T07:40:50.073Z,5.32
2023-04-05T07:43:20.524Z,6.38
2023-04-05T07:45:47.813Z,5.07
2023-04-05T07:48:14.658Z,5.97
2023-04-05T07:50:42.438Z,6.32
2023-04-05T07:53:09.541Z,5.18
2023-04-05T07:55:38.630Z,4.82
2023-04-05T07:58:05.511Z,6.45
2023-04-05T08:00:32.791Z,4.72
2023-04-05T08:03:02.212Z,5.65
2023-04-05T08:05:29.531Z,6.05
2023-04-05T08:07:58.286Z,4.65
2023-04-05T08:10:26.221Z,7.93
2023-04-05T08:12:53.683Z,7.57
2023-04-05T08:15:21.013Z,8.40
2023-04-05T08:17:48.151Z,7.50
2023-04-05T08:20:15.066Z,6.75
2023-04-05T08:22:42.275Z,7.85
2023-04-05T08:25:09.774Z,6.55
2023-04-05T08:27:36.720Z,5.32
2023-04-05T08:30:04.198Z,9.60
2023-04-05T08:32:33.135Z,8.25
2023-04-05T08:35:00.461Z,6.53
2023-04-05T08:37:27.947Z,5.45
2023-04-05T08:39:55.253Z,7.72
2023-04-05T08:42:31.785Z,5.05
2023-04-05T08:45:02.980Z,4.70
2023-04-05T08:47:31.265Z,4.53
2023-04-05T08:49:58.961Z,5.90
2023-04-05T08:52:25.962Z,7.28
2023-04-05T08:54:55.340Z,11.23
2023-04-05T08:57:27.401Z,5.75
2023-04-05T08:59:56.414Z,5.20
2023-04-05T09:02:24.849Z,7.68
2023-04-05T09:04:52.680Z,5.47
2023-04-05T09:07:20.798Z,6.65
2023-04-05T09:09:52.466Z,5.32
2023-04-05T09:12:24.593Z,4.85
2023-04-05T09:14:52.595Z,5.55
2023-04-05T09:17:19.780Z,7.18
2023-04-05T09:19:50.167Z,6.40
2023-04-05T09:22:20.063Z,4.68
2023-04-05T09:24:47.434Z,4.57
2023-04-05T09:27:19.054Z,4.65
2023-04-05T09:29:48.674Z,5.13
2023-04-05T09:32:18.326Z,6.35
2023-04-05T09:34:45.488Z,13.20
2023-04-05T09:37:20.146Z,7.72
2023-04-05T09:39:49.830Z,5.47
2023-04-05T09:42:19.932Z,4.70
2023-04-05T09:44:57.572Z,6.93
2023-04-05T09:47:34.647Z,5.72
2023-04-05T09:50:16.847Z,6.40
2023-04-05T09:52:44.934Z,5.50
2023-04-05T09:55:13.402Z,6.47
2023-04-05T09:57:43.687Z,5.30
2023-04-05T10:00:23.888Z,4.47
2023-04-05T10:02:56.295Z,5.68
2023-04-05T10:05:29.536Z,5.25
2023-04-05T10:07:57.105Z,9.15
2023-04-05T10:10:24.811Z,6.95
2023-04-05T10:12:52.209Z,8.10
2023-04-05T10:15:19.313Z,5.18
2023-04-05T10:17:58.548Z,11.70
2023-04-05T10:20:28.098Z,6.60
2023-04-05T10:23:05.896Z,6.00
2023-04-05T10:25:36.077Z,4.47
2023-04-05T10:28:11.581Z,6.60
2023-04-05T10:30:47.513Z,6.10
2023-04-05T10:33:26.940Z,7.00
2023-04-05T10:35:56.909Z,8.23
2023-04-05T10:38:26.896Z,7.00
2023-04-05T10:41:10.315Z,6.93
2023-04-05T10:43:40.986Z,4.72
2023-04-05T10:46:08.816Z,4.45
2023-04-05T10:48:58.416Z,4.75
2023-04-05T10:51:26.785Z,5.22
2023-04-05T10:53:56.272Z,6.35
2023-04-05T10:56:25.168Z,5.50
2023-04-05T10:58:53.189Z,5.20
2023-04-05T11:01:21.396Z,6.20
2023-04-05T11:03:49.769Z,6.35
2023-04-05T11:06:34.016Z,6.30
2023-04-05T11:09:17.260Z,7.68
2023-04-05T11:11:48.336Z,7.32
2023-04-05T11:14:46.123Z,7.22
2023-04-05T11:17:29.199Z,6.68
2023-04-05T11:20:04.230Z,7.68
2023-04-05T11:22:31.811Z,9.23
2023-04-05T11:25:03.011Z,12.18
2023-04-05T11:27:37.656Z,9.18
2023-04-05T11:30:06.493Z,5.88
2023-04-05T11:32:44.504Z,8.70
2023-04-05T11:35:23.151Z,7.18
2023-04-05T11:38:01.890Z,10.98
2023-04-05T11:40:30.212Z,10.25
2023-04-05T11:43:04.309Z,11.52
2023-04-05T11:45:33.019Z,23.85
2023-04-05T11:48:10.829Z,19.30
2023-04-05T11:50:39.266Z,32.55
2023-04-05T11:53:13.890Z,11.75
2023-04-05T11:55:46.153Z,8.70
2023-04-05T11:58:15.044Z,13.65
2023-04-05T12:00:43.239Z,7.97
2023-04-05T12:03:17.884Z,9.75
2023-04-05T12:05:46.494Z,10.93
2023-04-05T12:08:13.407Z,7.63
2023-04-05T12:10:40.829Z,8.80
2023-04-05T12:13:07.663Z,7.20
2023-04-05T12:15:40.539Z,5.55
2023-04-05T12:18:14.826Z,11.10
2023-04-05T12:20:41.920Z,10.98
2023-04-05T12:23:09.270Z,5.97
2023-04-05T12:25:38.902Z,6.40
2023-04-05T12:28:09.736Z,11.25
2023-04-05T12:30:48.012Z,10.88
2023-04-05T12:33:15.791Z,17.27
2023-04-05T12:35:43.141Z,11.40
2023-04-05T12:38:14.088Z,6.30
2023-04-05T12:40:41.138Z,7.40
2023-04-05T12:43:09.878Z,7.78
2023-04-05T12:45:44.158Z,9.30
2023-04-05T12:48:20.172Z,9.13
2023-04-05T12:50:48.558Z,8.90
2023-04-05T12:53:18.477Z,7.82
2023-04-05T12:55:52.345Z,5.80
2023-04-05T12:58:21.124Z,6.68
2023-04-05T13:00:48.537Z,6.55
2023-04-05T13:03:21.231Z,6.18
2023-04-05T13:05:49.403Z,5.78
2023-04-05T13:08:19.673Z,6.30
2023-04-05T13:10:47.789Z,9.13
2023-04-05T13:13:16.577Z,8.13
2023-04-05T13:15:44.251Z,14.65
2023-04-05T13:18:14.787Z,8.55
2023-04-05T13:20:45.621Z,7.85
2023-04-05T13:23:13.232Z,6.45
2023-04-05T13:25:45.572Z,7.72
2023-04-05T13:28:12.912Z,7.10
2023-04-05T13:30:39.805Z,8.05
2023-04-05T13:33:07.145Z,5.72
2023-04-05T13:35:35.047Z,4.30
2023-04-05T13:38:04.250Z,7.45
2023-04-05T13:40:32.081Z,10.95
2023-04-05T13:42:59.176Z,10.60
2023-04-05T13:45:26.337Z,5.45
2023-04-05T13:47:53.822Z,6.10
2023-04-05T13:50:21.054Z,8.13
2023-04-05T13:52:47.964Z,6.15
2023-04-05T13:55:14.854Z,6.55
2023-04-05T13:57:41.654Z,8.98
2023-04-05T14:00:09.455Z,10.15
2023-04-05T14:02:36.404Z,8.40
2023-04-05T14:05:03.792Z,4.75
2023-04-05T14:07:30.886Z,8.00
2023-04-05T14:09:57.826Z,6.60
2023-04-05T14:12:25.034Z,4.45
2023-04-05T14:14:52.261Z,5.07
2023-04-05T14:17:19.525Z,6.18
2023-04-05T14:19:46.437Z,7.00
2023-04-05T14:22:13.873Z,5.57
2023-04-05T14:24:40.765Z,7.13
2023-04-05T14:27:07.980Z,6.55
2023-04-05T14:29:34.896Z,7.28
2023-04-05T14:32:02.251Z,8.10
2023-04-05T14:34:29.109Z,8.70
2023-04-05T14:36:58.320Z,4.32
2023-04-05T14:39:25.277Z,3.90
2023-04-05T14:41:52.925Z,5.65
2023-04-05T14:44:20.237Z,8.32
2023-04-05T14:46:48.595Z,4.85
2023-04-05T14:49:16.768Z,6.03
2023-04-05T14:51:43.699Z,6.35
2023-04-05T14:54:10.803Z,7.60
2023-04-05T14:56:37.681Z,6.47
2023-04-05T14:59:05.044Z,5.15
2023-04-05T15:01:32.190Z,8.25
2023-04-05T15:03:59.321Z,6.00
2023-04-05T15:06:26.291Z,7.78
2023-04-05T15:08:53.663Z,5.78
2023-04-05T15:11:21.708Z,5.22
2023-04-05T15:13:48.709Z,6.85
2023-04-05T15:16:15.607Z,6.15
2023-04-05T15:18:42.549Z,4.43
2023-04-05T15:21:09.389Z,5.20
2023-04-05T15:23:36.325Z,8.30
2023-04-05T15:26:03.278Z,7.07
2023-04-05T15:28:35.296Z,4.63
2023-04-05T15:31:02.634Z,5.47
2023-04-05T15:33:29.619Z,11.15
2023-04-05T15:35:56.587Z,7.88
2023-04-05T15:38:25.854Z,8.48
2023-04-05T15:40:52.808Z,6.72
2023-04-05T15:43:20.972Z,7.90
2023-04-05T15:45:47.883Z,12.48
2023-04-05T15:48:14.828Z,11.20
2023-04-05T15:50:42.549Z,17.92
2023-04-05T15:53:10.318Z,19.58
2023-04-05T15:55:37.646Z,10.00
2023-04-05T15:58:04.737Z,8.95
2023-04-05T16:00:35.052Z,7.13
2023-04-05T16:03:02.314Z,6.32
2023-04-05T16:05:29.261Z,7.60
2023-04-05T16:07:56.214Z,6.40
2023-04-05T16:10:23.185Z,6.65
2023-04-05T16:12:52.454Z,14.95
2023-04-05T16:15:19.778Z,6.55
2023-04-05T16:17:46.890Z,3.75
2023-04-05T16:20:14.177Z,7.63
2023-04-05T16:22:41.704Z,4.03
2023-04-05T16:25:08.693Z,4.93
2023-04-05T16:27:37.513Z,4.80
2023-04-05T16:30:04.923Z,4.57
2023-04-05T16:32:32.139Z,6.28
2023-04-05T16:34:59.390Z,10.73
2023-04-05T16:37:26.449Z,6.85
2023-04-05T16:39:53.325Z,4.53
2023-04-05T16:42:20.175Z,7.57
2023-04-05T16:44:47.455Z,7.43
2023-04-05T16:47:14.291Z,6.22
2023-04-05T16:49:41.461Z,7.72
2023-04-05T16:52:09.340Z,5.93
2023-04-05T16:54:36.154Z,7.40
2023-04-05T16:57:03.004Z,10.45
2023-04-05T16:59:31.296Z,8.65
2023-04-05T17:01:58.529Z,8.18
2023-04-05T17:04:25.519Z,6.13
2023-04-05T17:06:52.360Z,7.18
2023-04-05T17:09:19.360Z,9.55
2023-04-05T17:11:46.921Z,8.18
2023-04-05T17:14:13.868Z,6.85
2023-04-05T17:16:40.980Z,7.13
2023-04-05T17:19:08.005Z,5.57
2023-04-05T17:21:35.657Z,8.38
2023-04-05T17:24:03.021Z,10.50
2023-04-05T17:26:30.530Z,6.70
2023-04-05T17:28:58.040Z,9.70
2023-04-05T17:31:25.755Z,5.25
2023-04-05T17:33:52.645Z,7.22
2023-04-05T17:36:19.456Z,9.15
2023-04-05T17:38:46.495Z,6.68
2023-04-05T17:41:13.936Z,8.48
2023-04-05T17:43:40.896Z,6.68
2023-04-05T17:46:09.414Z,7.60
2023-04-05T17:48:42.300Z,6.00
2023-04-05T17:51:12.052Z,9.05
2023-04-05T17:53:39.116Z,14.55
2023-04-05T17:56:06.132Z,10.10
2023-04-05T17:58:35.772Z,7.20
2023-04-05T18:01:03.103Z,9.27
2023-04-05T18:03:30.146Z,10.50
2023-04-05T18:05:57.150Z,11.20
2023-04-05T18:08:26.428Z,9.45
2023-04-05T18:10:58.087Z,12.80
2023-04-05T18:13:26.817Z,10.65
2023-04-05T18:15:55.125Z,9.15
2023-04-05T18:18:22.629Z,8.13
2023-04-05T18:20:51.335Z,11.15
2023-04-05T18:23:22.428Z,10.40
2023-04-05T18:25:49.726Z,9.07
2023-04-05T18:28:22.870Z,8.57
2023-04-05T18:30:51.721Z,15.30
2023-04-05T18:33:18.866Z,10.15
2023-04-05T18:35:50.551Z,8.77
2023-04-05T18:38:18.461Z,10.35
2023-04-05T18:40:46.139Z,14.32
2023-04-05T18:43:13.751Z,13.18
2023-04-05T18:45:40.924Z,12.23
2023-04-05T18:48:07.968Z,12.65
2023-04-05T18:50:35.576Z,11.15
2023-04-05T18:53:02.976Z,17.95
2023-04-05T18:55:29.820Z,21.08
2023-04-05T18:57:56.970Z,15.23
2023-04-05T19:00:23.854Z,17.83
2023-04-05T19:02:51.077Z,17.65
2023-04-05T19:05:18.180Z,18.95
2023-04-05T19:07:45.349Z,13.27
2023-04-05T19:10:12.300Z,15.90
2023-04-05T19:12:39.081Z,14.07
2023-04-05T19:15:07.126Z,16.83
2023-04-05T19:17:34.034Z,20.35
2023-04-05T19:20:00.863Z,15.95
2023-04-05T19:22:27.697Z,17.83
2023-04-05T19:24:54.810Z,18.10
2023-04-05T19:27:21.689Z,22.55
2023-04-05T19:29:48.898Z,25.75
2023-04-05T19:32:16.109Z,16.17
2023-04-05T19:34:42.950Z,15.15
2023-04-05T19:37:09.857Z,16.60
2023-04-05T19:39:36.869Z,21.50
2023-04-05T19:42:05.298Z,17.35
2023-04-05T19:44:37.009Z,14.30
2023-04-05T19:47:10.894Z,16.83
2023-04-05T19:49:45.050Z,15.90
2023-04-05T19:52:33.531Z,17.10
2023-04-05T19:55:01.527Z,13.95
2023-04-05T19:57:28.983Z,16.65
2023-04-05T19:59:55.953Z,20.70
2023-04-05T20:02:38.573Z,25.10
2023-04-05T20:05:13.352Z,26.88
2023-04-05T20:07:40.375Z,25.77
2023-04-05T20:10:16.246Z,27.10
2023-04-05T20:12:43.508Z,31.05
2023-04-05T20:15:12.988Z,27.35
2023-04-05T20:17:42.916Z,24.65
2023-04-05T20:20:11.279Z,24.88
2023-04-05T20:22:38.876Z,33.55
2023-04-05T20:25:34.970Z,33.63
2023-04-05T20:28:02.077Z,29.08
2023-04-05T20:30:30.655Z,32.05
2023-04-05T20:32:57.611Z,42.90
2023-04-05T20:35:32.636Z,35.33
2023-04-05T20:37:59.493Z,27.92
2023-04-05T20:40:26.496Z,21.40
2023-04-05T20:42:53.342Z,21.25
2023-04-05T20:45:20.363Z,24.73
2023-04-05T20:47:47.754Z,20.88
2023-04-05T20:50:15.124Z,19.70
2023-04-05T20:52:41.953Z,36.90
2023-04-05T20:55:09.742Z,29.75
2023-04-05T20:57:39.776Z,29.90
2023-04-05T21:00:07.846Z,37.78
2023-04-05T21:02:35.167Z,26.83
2023-04-05T21:05:03.916Z,53.80
2023-04-05T21:07:34.262Z,76.97
2023-04-05T21:10:01.798Z,74.55
2023-04-05T21:12:28.985Z,49.55
2023-04-05T21:14:55.900Z,36.53
2023-04-05T21:17:22.918Z,32.40
2023-04-05T21:19:49.726Z,34.00
2023-04-05T21:22:16.554Z,31.08
2023-04-05T21:24:43.393Z,32.25
2023-04-05T21:27:10.180Z,30.83
2023-04-05T21:29:37.002Z,25.35
2023-04-05T21:32:04.493Z,19.98
2023-04-05T21:34:31.427Z,20.48
2023-04-05T21:36:58.248Z,21.63
2023-04-05T21:39:25.055Z,29.10
2023-04-05T21:41:52.463Z,32.50
2023-04-05T21:44:19.246Z,35.13
2023-04-05T21:46:46.447Z,42.92
2023-04-05T21:49:13.844Z,41.20
2023-04-05T21:51:41.502Z,41.30
2023-04-05T21:54:08.345Z,45.75
2023-04-05T21:56:35.487Z,42.60
2023-04-05T21:59:02.370Z,42.50
2023-04-05T22:01:29.590Z,39.67
2023-04-05T22:03:56.467Z,36.20
2023-04-05T22:06:23.328Z,27.77
2023-04-05T22:08:53.030Z,30.77
2023-04-05T22:11:21.327Z,25.02
2023-04-05T22:13:48.201Z,24.48
2023-04-05T22:16:14.987Z,23.70
2023-04-05T22:18:41.834Z,28.48
2023-04-05T22:21:09.273Z,28.48
2023-04-05T22:23:36.515Z,28.73
2023-04-05T22:26:03.436Z,32.35
2023-04-05T22:28:30.412Z,30.02
2023-04-05T22:30:57.202Z,32.15
2023-04-05T22:33:24.399Z,32.90
2023-04-05T22:35:51.771Z,34.10
2023-04-05T22:38:19.039Z,33.45
2023-04-05T22:40:46.428Z,27.33
2023-04-05T22:43:13.712Z,30.13
2023-04-05T22:45:41.076Z,22.88
2023-04-05T22:48:08.061Z,22.10
2023-04-05T22:50:35.317Z,20.83
2023-04-05T22:53:02.203Z,21.33
2023-04-05T22:55:29.247Z,21.58
2023-04-05T22:57:56.784Z,18.27
2023-04-05T23:00:23.643Z,19.83
2023-04-05T23:02:51.159Z,15.95
2023-04-05T23:05:18.034Z,16.95
2023-04-05T23:07:45.298Z,18.80
2023-04-05T23:10:12.180Z,17.08
2023-04-05T23:12:39.042Z,18.02
2023-04-05T23:15:06.664Z,16.15
2023-04-05T23:17:33.984Z,16.75
2023-04-05T23:20:00.909Z,14.82
2023-04-05T23:22:27.742Z,19.63
2023-04-05T23:24:54.608Z,18.45
2023-04-05T23:27:22.927Z,17.42
2023-04-05T23:29:49.922Z,14.60
2023-04-05T23:32:16.705Z,18.75
2023-04-05T23:34:43.460Z,16.63
2023-04-05T23:37:10.388Z,13.18
2023-04-05T23:39:37.249Z,14.13
2023-04-05T23:42:04.788Z,16.05
2023-04-05T23:44:31.716Z,13.60
2023-04-05T23:46:58.609Z,17.20
2023-04-05T23:49:27.922Z,17.27
2023-04-05T23:51:55.818Z,18.80
2023-04-05T23:54:23.337Z,19.50
2023-04-05T23:56:50.560Z,16.67
2023-04-05T23:59:17.436Z,15.90
